LZSL Airport Information

Runway Information
Runway 18 Length 7874 ft width 187 ft
Elevation 1044 ft Threshold 0 ft Heading 182
Runway 36 Length 7874 ft Width 187 ft
Elevation 1014 ft Threshold 0 ft Heading 2
Airport Frequencies
Type APP Name SLIAČ APPR Frequency 119.15 MHZ
Type TWR Name SLIAČ TOWE Frequency 122.9 MHZ
Airport Navaids
Type VOR-DME Name Sliac Frequency 114000 KHZ
Airport Weather Information & NOTAM
ADDS - METARS form results

(1056 UTC 21 April 2019)
Data provider http://aviationweather.gov/metar/data/
 
METAR text: LZSL 211030Z 04004KT 350V100 CAVOK 20/M00 Q1020
Conditions at: LZSL (SLIAC , SK) observed 1030 UTC 21 April 2019
Temperature: 20.0°C (68°F)
Dewpoint: 0.0°C (32°F) [RH = 26%]
Pressure (altimeter): 30.12 inches Hg (1020.0 mb)
Winds: from the NE (40 degrees) at 5 MPH (4 knots; 2.1 m/s)
Visibility: 6 or more miles (10+ km)
Ceiling: ceiling and visibility are OK
Clouds: unknown
Weather: no significant weather observed at this time

METAR text: LZSL 211000Z 35005KT 300V030 CAVOK 19/M01 Q1020
Conditions at: LZSL (SLIAC , SK) observed 1000 UTC 21 April 2019
Temperature: 19.0°C (66°F)
Dewpoint: -1.0°C (30°F) [RH = 26%]
Pressure (altimeter): 30.12 inches Hg (1020.0 mb)
Winds: from the N (350 degrees) at 6 MPH (5 knots; 2.6 m/s)
Visibility: 6 or more miles (10+ km)
Ceiling: ceiling and visibility are OK
Clouds: unknown
Weather: no significant weather observed at this time

Forecast for: LZSL (SLIAC , SK)
Text: TAF LZSL 210800Z 2109/2118 VRB02KT CAVOK
Forecast period: 0900 to 1800 UTC 21 April 2019
Forecast type: FROM: standard forecast or significant change
Winds: variable direction winds at 2 MPH (2 knots; 1.0 m/s)
Visibility: 6 or more miles 10+ km)
Ceiling: unknown
Clouds: missing
Weather: NSW  (no significant weather)
Text: BECMG 2109/2111 36008KT
Forecast period: 0900 to 1800 UTC 21 April 2019
Forecast type: BECOMING: Conditions expected to become as follows by 1100 UTC 21 April 2019
Winds: from the N (360 degrees) at 9 MPH (8 knots; 4.1 m/s)
Visibility: 6 or more miles 10+ km)
Ceiling: unknown
Clouds: missing
Weather: NSW  (no significant weather)